Home > Products > Valid Products > TAF

000
FTPQ31 PGUM 011720
TAFGUM
TAF
PGUM 011720Z 0118/0224 01006KT P6SM VCSH FEW020 SCT050
     FM020100 01009KT P6SM VCSH FEW020 SCT050
     FM020900 02012KT P6SM VCSH FEW018 SCT040 BKN140=



000
FTPQ31 PGUM 011720
TAFGUM
TAF
PGUM 011720Z 0118/0224 01006KT P6SM VCSH FEW020 SCT050
     FM020100 01009KT P6SM VCSH FEW020 SCT050
     FM020900 02012KT P6SM VCSH FEW018 SCT040 BKN140=



000
FTPQ31 PGUM 011720
TAFGUM
TAF
PGUM 011720Z 0118/0224 01006KT P6SM VCSH FEW020 SCT050
     FM020100 01009KT P6SM VCSH FEW020 SCT050
     FM020900 02012KT P6SM VCSH FEW018 SCT040 BKN140=



000
FTPQ31 PGUM 011132
TAFGUM
TAF
PGUM 011132Z 0112/0218 06008KT P6SM VCSH FEW020 SCT050
     FM020100 05013KT P6SM VCSH FEW020 SCT050=



000
FTPQ31 PGUM 011132
TAFGUM
TAF
PGUM 011132Z 0112/0218 06008KT P6SM VCSH FEW020 SCT050
     FM020100 05013KT P6SM VCSH FEW020 SCT050=



000
FTPQ31 PGUM 011132
TAFGUM
TAF
PGUM 011132Z 0112/0218 06008KT P6SM VCSH FEW020 SCT050
     FM020100 05013KT P6SM VCSH FEW020 SCT050=



000
FTPQ31 PGUM 011132
TAFGUM
TAF
PGUM 011132Z 0112/0218 06008KT P6SM VCSH FEW020 SCT050
     FM020100 05013KT P6SM VCSH FEW020 SCT050=



000
FTPQ31 PGUM 010537
TAFGUM
TAF
PGUM 010537Z 0106/0212 06011KT P6SM VCSH FEW020 SCT050=



000
FTPQ31 PGUM 010537
TAFGUM
TAF
PGUM 010537Z 0106/0212 06011KT P6SM VCSH FEW020 SCT050=



000
FTPQ31 PGUM 302337
TAFGUM
TAF
PGUM 302337Z 0100/0206 06011KT P6SM VCSH FEW020 SCT050=



000
FTPQ31 PGUM 302337
TAFGUM
TAF
PGUM 302337Z 0100/0206 06011KT P6SM VCSH FEW020 SCT050=



000
FTPQ31 PGUM 301728
TAFGUM
TAF
PGUM 301728Z 3018/0124 07006KT P6SM VCSH FEW020
     FM302300 08011KT P6SM VCSH FEW020 SCT050=



000
FTPQ31 PGUM 301728
TAFGUM
TAF
PGUM 301728Z 3018/0124 07006KT P6SM VCSH FEW020
     FM302300 08011KT P6SM VCSH FEW020 SCT050=



000
FTPQ31 PGUM 301140
TAFGUM
TAF
PGUM 301140Z 3012/0118 07011KT P6SM VCSH FEW020 SCT050=



000
FTPQ31 PGUM 301140
TAFGUM
TAF
PGUM 301140Z 3012/0118 07011KT P6SM VCSH FEW020 SCT050=



000
FTPQ31 PGUM 301140
TAFGUM
TAF
PGUM 301140Z 3012/0118 07011KT P6SM VCSH FEW020 SCT050=



000
FTPQ31 PGUM 301140
TAFGUM
TAF
PGUM 301140Z 3012/0118 07011KT P6SM VCSH FEW020 SCT050=



000
FTPQ31 PGUM 300540
TAFGUM
TAF
PGUM 300540Z 3006/0112 07011KT P6SM VCSH SCT020 SCT050=



000
FTPQ31 PGUM 292342
TAFGUM
TAF
PGUM 292342Z 3000/0106 07011KT P6SM VCSH SCT020 SCT050=



000
FTPQ31 PGUM 292342
TAFGUM
TAF
PGUM 292342Z 3000/0106 07011KT P6SM VCSH SCT020 SCT050=



000
FTPQ31 PGUM 292342
TAFGUM
TAF
PGUM 292342Z 3000/0106 07011KT P6SM VCSH SCT020 SCT050=



000
FTPQ31 PGUM 292342
TAFGUM
TAF
PGUM 292342Z 3000/0106 07011KT P6SM VCSH SCT020 SCT050=



000
FTPQ31 PGUM 291730
TAFGUM
TAF
PGUM 291730Z 2918/3024 08010KT P6SM VCSH SCT020 SCT050=



000
FTPQ31 PGUM 291730
TAFGUM
TAF
PGUM 291730Z 2918/3024 08010KT P6SM VCSH SCT020 SCT050=



000
FTPQ31 PGUM 291730
TAFGUM
TAF
PGUM 291730Z 2918/3024 08010KT P6SM VCSH SCT020 SCT050=



000
FTPQ31 PGUM 291137
TAFGUM
TAF
PGUM 291137Z 2912/3018 08011KT P6SM VCSH SCT020 SCT050=



000
FTPQ31 PGUM 291137
TAFGUM
TAF
PGUM 291137Z 2912/3018 08011KT P6SM VCSH SCT020 SCT050=



000
FTPQ31 PGUM 290529
TAFGUM
TAF
PGUM 290529Z 2906/3012 08013KT P6SM VCSH SCT020 SCT050=



000
FTPQ31 PGUM 290529
TAFGUM
TAF
PGUM 290529Z 2906/3012 08013KT P6SM VCSH SCT020 SCT050=



000
FTPQ31 PGUM 290529
TAFGUM
TAF
PGUM 290529Z 2906/3012 08013KT P6SM VCSH SCT020 SCT050=



000
FTPQ31 PGUM 290529
TAFGUM
TAF
PGUM 290529Z 2906/3012 08013KT P6SM VCSH SCT020 SCT050=



000
FTPQ31 PGUM 282322
TAFGUM
TAF
PGUM 282322Z 2900/3006 05013KT P6SM VCSH SCT018 SCT050=



000
FTPQ31 PGUM 282322
TAFGUM
TAF
PGUM 282322Z 2900/3006 05013KT P6SM VCSH SCT018 SCT050=



    US Dept of Commerce
    National Oceanic and Atmospheric Administration
    National Weather Service
    1325 East West Highway
    Silver Spring, MD 20910
    Page Author: NWS Internet Services Team
Disclaimer
Information Quality
Credits
Glossary
Privacy Policy
Freedom of Information Act (FOIA)
About Us
Career Opportunities